DAAD

Bou Saada Airport

Algeria
METAR DAAD 181100Z 30011KT 9999 FEW030 22/16 Q1007
Observed Flight Rules
Oct-18 @ 11:00 UTC (30 minutes ago) Visual Flight Rules
Wind Visibility Clouds
300° at 11 knots 10,000+ meters
  • Few at 3,000' AGL
Temperatures Readings
Current 22°C / 72°F
Dewpoint 16°C / 61°F
Humidity 69%
Altimeter 29.73" Hg
Pressure 1007 hPa
Elevation 461
METAR DAAD 181100Z 30011KT 9999 FEW030 22/16 Q1007
Observed Flight Rules
Oct-18 @ 11:00 UTC
(30 minutes ago)
VFR
Wind Visibility
300° at 11 knots 10,000+ meters
Clouds
  • Few at 3,000' AGL
Temperature Dewpoint
22°C / 72°F 16°C / 61°F
Humidity Altimeter Pressure
69% 29.73" Hg 1007 hPa